createdAt,value
2018-07-12T00:00:06.055Z,10.32
2018-07-12T00:02:34.500Z,10.55
2018-07-12T00:05:02.953Z,8.18
2018-07-12T00:07:34.449Z,10.08
2018-07-12T00:10:01.948Z,11.73
2018-07-12T00:12:29.469Z,10.60
2018-07-12T00:14:57.017Z,10.72
2018-07-12T00:17:24.575Z,10.78
2018-07-12T00:19:52.343Z,9.03
2018-07-12T00:22:20.745Z,8.73
2018-07-12T00:24:48.345Z,10.55
2018-07-12T00:27:15.857Z,9.83
2018-07-12T00:29:43.405Z,10.25
2018-07-12T00:32:11.240Z,11.83
2018-07-12T00:34:38.995Z,12.05
2018-07-12T00:37:06.793Z,10.32
2018-07-12T00:39:36.342Z,7.92
2018-07-12T00:42:07.680Z,9.10
2018-07-12T00:44:35.257Z,9.93
2018-07-12T00:47:03.600Z,9.58
2018-07-12T00:49:33.243Z,9.93
2018-07-12T00:52:04.643Z,9.30
2018-07-12T00:54:32.164Z,9.25
2018-07-12T00:56:59.912Z,10.48
2018-07-12T00:59:27.488Z,12.37
2018-07-12T01:01:55.167Z,9.13
2018-07-12T01:04:22.708Z,11.70
2018-07-12T01:06:50.561Z,12.53
2018-07-12T01:09:22.595Z,10.63
2018-07-12T01:11:50.181Z,9.80
2018-07-12T01:14:19.692Z,9.55
2018-07-12T01:16:54.428Z,9.50
2018-07-12T01:19:25.751Z,7.77
2018-07-12T01:21:54.343Z,9.50
2018-07-12T01:24:22.251Z,8.87
2018-07-12T01:26:50.947Z,10.00
2018-07-12T01:29:20.407Z,8.83
2018-07-12T01:31:47.914Z,8.68
2018-07-12T01:34:21.208Z,11.15
2018-07-12T01:36:49.648Z,8.10
2018-07-12T01:39:17.180Z,8.25
2018-07-12T01:41:49.678Z,8.60
2018-07-12T01:44:19.971Z,10.00
2018-07-12T01:46:47.437Z,7.92
2018-07-12T01:49:15.820Z,7.80
2018-07-12T01:51:43.371Z,7.95
2018-07-12T01:54:11.047Z,6.57
2018-07-12T01:56:39.472Z,7.85
2018-07-12T01:59:07.788Z,8.53
2018-07-12T02:01:36.219Z,8.40
2018-07-12T02:04:03.716Z,7.57
2018-07-12T02:06:32.258Z,6.95
2018-07-12T02:08:59.917Z,7.00
2018-07-12T02:11:27.472Z,7.50
2018-07-12T02:13:55.341Z,7.20
2018-07-12T02:16:22.791Z,7.15
2018-07-12T02:18:50.313Z,10.10
2018-07-12T02:21:17.886Z,10.70
2018-07-12T02:23:52.633Z,9.73
2018-07-12T02:26:20.120Z,8.83
2018-07-12T02:28:47.671Z,9.43
2018-07-12T02:31:15.199Z,7.92
2018-07-12T02:33:42.765Z,7.87
2018-07-12T02:36:10.228Z,9.05
2018-07-12T02:38:41.520Z,9.30
2018-07-12T02:41:09.014Z,9.63
2018-07-12T02:43:36.633Z,10.87
2018-07-12T02:46:05.456Z,8.30
2018-07-12T02:48:32.973Z,8.60
2018-07-12T02:51:02.400Z,10.13
2018-07-12T02:53:29.996Z,9.70
2018-07-12T02:55:57.570Z,11.65
2018-07-12T02:58:25.108Z,9.77
2018-07-12T03:00:53.648Z,12.75
2018-07-12T03:03:21.366Z,9.83
2018-07-12T03:05:49.350Z,10.33
2018-07-12T03:08:16.863Z,10.20
2018-07-12T03:10:44.427Z,7.92
2018-07-12T03:13:11.975Z,9.75
2018-07-12T03:15:39.559Z,9.20
2018-07-12T03:18:07.163Z,13.05
2018-07-12T03:20:38.565Z,10.40
2018-07-12T03:23:06.246Z,9.10
2018-07-12T03:25:33.749Z,9.20
2018-07-12T03:28:04.463Z,9.48
2018-07-12T03:30:32.985Z,10.55
2018-07-12T03:33:05.361Z,11.45
2018-07-12T03:35:32.845Z,10.77
2018-07-12T03:38:00.320Z,9.88
2018-07-12T03:40:27.948Z,12.33
2018-07-12T03:42:55.316Z,12.00
2018-07-12T03:45:22.887Z,10.98
2018-07-12T03:47:51.511Z,14.98
2018-07-12T03:50:20.937Z,10.38
2018-07-12T03:52:48.452Z,10.90
2018-07-12T03:55:16.019Z,10.05
2018-07-12T03:57:43.486Z,13.28
2018-07-12T04:00:13.118Z,13.00
2018-07-12T04:02:42.546Z,10.70
2018-07-12T04:05:10.187Z,13.20
2018-07-12T04:07:37.642Z,14.33
2018-07-12T04:10:05.196Z,12.07
2018-07-12T04:12:33.677Z,11.00
2018-07-12T04:15:01.578Z,12.78
2018-07-12T04:17:32.247Z,9.60
2018-07-12T04:20:00.956Z,10.55
2018-07-12T04:22:29.878Z,9.85
2018-07-12T04:24:57.434Z,10.03
2018-07-12T04:27:29.156Z,10.78
2018-07-12T04:29:58.220Z,8.20
2018-07-12T04:32:26.604Z,8.00
2018-07-12T04:34:56.096Z,9.13
2018-07-12T04:37:24.585Z,8.23
2018-07-12T04:39:52.136Z,7.50
2018-07-12T04:42:19.542Z,8.40
2018-07-12T04:44:47.088Z,8.50
2018-07-12T04:47:18.408Z,7.40
2018-07-12T04:49:47.743Z,6.70
2018-07-12T04:52:15.247Z,7.30
2018-07-12T04:54:42.698Z,8.00
2018-07-12T04:57:10.149Z,6.97
2018-07-12T04:59:37.654Z,5.72
2018-07-12T05:02:07.673Z,6.05
2018-07-12T05:04:36.066Z,5.37
2018-07-12T05:07:05.646Z,5.27
2018-07-12T05:09:34.102Z,6.12
2018-07-12T05:12:01.553Z,5.12
2018-07-12T05:14:29.935Z,5.53
2018-07-12T05:16:58.379Z,6.35
2018-07-12T05:19:26.819Z,6.55
2018-07-12T05:21:54.368Z,6.63
2018-07-12T05:24:21.843Z,6.90
2018-07-12T05:26:49.327Z,7.58
2018-07-12T05:29:17.784Z,5.50
2018-07-12T05:31:46.175Z,9.93
2018-07-12T05:34:13.663Z,7.75
2018-07-12T05:36:53.171Z,7.08
2018-07-12T05:39:23.181Z,5.80
2018-07-12T05:41:53.900Z,7.05
2018-07-12T05:44:24.921Z,8.48
2018-07-12T05:46:54.672Z,9.20
2018-07-12T05:49:23.448Z,8.40
2018-07-12T05:51:53.072Z,9.43
2018-07-12T05:54:22.843Z,10.13
2018-07-12T05:56:54.696Z,9.70
2018-07-12T05:59:24.389Z,10.68
2018-07-12T06:02:05.189Z,10.45
2018-07-12T06:04:34.820Z,8.73
2018-07-12T06:07:03.478Z,8.85
2018-07-12T06:09:32.169Z,8.25
2018-07-12T06:12:00.903Z,8.97
2018-07-12T06:14:29.541Z,9.45
2018-07-12T06:16:58.209Z,10.03
2018-07-12T06:19:26.882Z,8.77
2018-07-12T06:21:55.675Z,8.68
2018-07-12T06:24:25.339Z,8.90
2018-07-12T06:26:53.982Z,10.40
2018-07-12T06:29:22.608Z,12.50
2018-07-12T06:31:51.339Z,10.98
2018-07-12T06:34:21.054Z,10.30
2018-07-12T06:36:51.932Z,10.85
2018-07-12T06:39:20.602Z,9.45
2018-07-12T06:41:50.273Z,9.83
2018-07-12T06:44:18.973Z,9.53
2018-07-12T06:46:47.636Z,8.15
2018-07-12T06:49:16.407Z,10.88
2018-07-12T06:51:44.680Z,9.00
2018-07-12T06:54:13.910Z,9.28
2018-07-12T06:56:42.580Z,18.85
2018-07-12T06:59:11.334Z,9.53
2018-07-12T07:01:39.999Z,8.90
2018-07-12T07:04:09.760Z,8.03
2018-07-12T07:06:38.517Z,8.70
2018-07-12T07:09:08.920Z,12.98
2018-07-12T07:11:37.774Z,9.77
2018-07-12T07:14:06.490Z,8.53
2018-07-12T07:16:35.241Z,8.73
2018-07-12T07:19:03.945Z,8.85
2018-07-12T07:21:32.841Z,11.48
2018-07-12T07:24:05.410Z,8.48
2018-07-12T07:26:34.059Z,10.05
2018-07-12T07:29:02.789Z,10.43
2018-07-12T07:31:33.595Z,11.45
2018-07-12T07:34:04.429Z,8.58
2018-07-12T07:36:33.106Z,12.07
2018-07-12T07:39:01.821Z,11.63
2018-07-12T07:41:31.507Z,10.82
2018-07-12T07:44:00.774Z,10.90
2018-07-12T07:46:30.464Z,9.45
2018-07-12T07:48:59.148Z,10.43
2018-07-12T07:51:27.806Z,11.50
2018-07-12T07:53:56.473Z,10.65
2018-07-12T07:56:25.347Z,10.25
2018-07-12T07:58:55.027Z,11.10
2018-07-12T08:01:23.691Z,10.80
2018-07-12T08:03:53.355Z,10.50
2018-07-12T08:06:22.226Z,11.73
2018-07-12T08:08:51.000Z,22.22
2018-07-12T08:11:19.683Z,11.88
2018-07-12T08:13:48.388Z,10.58
2018-07-12T08:16:17.127Z,11.48
2018-07-12T08:18:48.147Z,11.28
2018-07-12T08:21:17.013Z,11.83
2018-07-12T08:23:47.248Z,10.60
2018-07-12T08:26:15.941Z,13.70
2018-07-12T08:28:44.557Z,12.80
2018-07-12T08:31:13.174Z,12.93
2018-07-12T08:33:41.778Z,10.78
2018-07-12T08:36:11.003Z,11.57
2018-07-12T08:38:39.610Z,11.93
2018-07-12T08:41:08.227Z,8.43
2018-07-12T08:43:37.852Z,12.18
2018-07-12T08:46:06.523Z,9.85
2018-07-12T08:48:37.125Z,11.48
2018-07-12T08:51:07.784Z,8.78
2018-07-12T08:53:37.418Z,10.90
2018-07-12T08:56:08.040Z,8.70
2018-07-12T08:58:37.690Z,10.93
2018-07-12T09:01:09.528Z,9.83
2018-07-12T09:03:42.561Z,7.80
2018-07-12T09:06:11.221Z,8.18
2018-07-12T09:08:39.825Z,6.40
2018-07-12T09:11:08.435Z,9.93
2018-07-12T09:13:37.193Z,8.68
2018-07-12T09:16:05.933Z,8.97
2018-07-12T09:18:35.146Z,8.63
2018-07-12T09:21:03.850Z,9.25
2018-07-12T09:23:33.458Z,6.60
2018-07-12T09:26:02.083Z,7.55
2018-07-12T09:28:30.723Z,7.78
2018-07-12T09:30:59.328Z,8.20
2018-07-12T09:33:31.917Z,5.90
2018-07-12T09:36:00.578Z,6.00
2018-07-12T09:38:42.134Z,8.43
2018-07-12T09:41:11.281Z,6.95
2018-07-12T09:43:43.376Z,6.80
2018-07-12T09:46:12.699Z,6.90
2018-07-12T09:48:42.624Z,7.13
2018-07-12T09:51:14.051Z,5.53
2018-07-12T09:53:43.802Z,5.90
2018-07-12T09:56:14.627Z,7.53
2018-07-12T09:58:43.455Z,5.65
2018-07-12T10:01:17.283Z,4.90
2018-07-12T10:03:51.309Z,6.08
2018-07-12T10:06:26.011Z,8.03
2018-07-12T10:10:00.447Z,7.30
2018-07-12T10:12:37.117Z,4.85
2018-07-12T10:15:10.863Z,5.53
2018-07-12T10:17:48.645Z,9.85
2018-07-12T10:20:19.336Z,3.87
2018-07-12T10:22:49.875Z,5.28
2018-07-12T10:25:18.499Z,5.50
2018-07-12T10:27:47.109Z,3.87
2018-07-12T10:30:15.831Z,4.30
2018-07-12T10:32:44.464Z,7.10
2018-07-12T10:35:13.252Z,5.78
2018-07-12T10:37:41.900Z,3.95
2018-07-12T10:40:10.506Z,3.75
2018-07-12T10:42:39.130Z,6.30
2018-07-12T10:45:09.737Z,4.57
2018-07-12T10:47:38.426Z,5.75
2018-07-12T10:50:06.699Z,3.30
2018-07-12T10:52:35.337Z,2.83
2018-07-12T10:55:04.041Z,3.62
2018-07-12T10:57:36.082Z,3.75
2018-07-12T11:00:06.794Z,4.08
2018-07-12T11:02:35.398Z,3.98
2018-07-12T11:05:04.111Z,3.80
2018-07-12T11:07:32.769Z,6.10
2018-07-12T11:10:03.379Z,3.65
2018-07-12T11:12:31.949Z,3.90
2018-07-12T11:15:00.583Z,3.60
2018-07-12T11:17:29.235Z,3.03
2018-07-12T11:19:59.061Z,7.00
2018-07-12T11:22:28.782Z,6.37
2018-07-12T11:24:57.385Z,3.63
2018-07-12T11:27:26.993Z,3.27
2018-07-12T11:29:57.031Z,3.98
2018-07-12T11:32:25.701Z,4.25
2018-07-12T11:34:54.381Z,5.03
2018-07-12T11:37:24.405Z,3.62
2018-07-12T11:39:53.183Z,4.65
2018-07-12T11:42:21.801Z,4.58
2018-07-12T11:44:50.912Z,5.47
2018-07-12T11:47:20.120Z,5.00
2018-07-12T11:49:48.832Z,3.47
2018-07-12T11:52:17.605Z,3.80
2018-07-12T11:54:46.455Z,4.35
2018-07-12T11:57:16.126Z,5.07
2018-07-12T11:59:44.752Z,4.15
2018-07-12T12:02:13.372Z,5.90
2018-07-12T12:04:41.994Z,5.20
2018-07-12T12:07:12.638Z,3.47
2018-07-12T12:09:45.111Z,3.00
2018-07-12T12:12:13.725Z,3.05
2018-07-12T12:14:42.325Z,2.75
2018-07-12T12:17:10.922Z,2.98
2018-07-12T12:19:40.557Z,2.55
2018-07-12T12:22:09.277Z,6.75
2018-07-12T12:24:37.891Z,3.02
2018-07-12T12:27:07.512Z,3.47
2018-07-12T12:29:38.177Z,7.92
2018-07-12T12:32:06.817Z,3.05
2018-07-12T12:34:36.425Z,3.05
2018-07-12T12:37:05.079Z,2.52
2018-07-12T12:39:33.801Z,3.08
2018-07-12T12:42:02.453Z,3.33
2018-07-12T12:44:31.050Z,4.55
2018-07-12T12:46:59.649Z,3.15
2018-07-12T12:49:28.295Z,5.10
2018-07-12T12:51:57.899Z,1.80
2018-07-12T12:54:26.625Z,3.30
2018-07-12T12:56:55.273Z,6.65
2018-07-12T12:59:23.899Z,1.57
2018-07-12T13:01:52.498Z,1.92
2018-07-12T13:04:26.526Z,2.67
2018-07-12T13:06:55.138Z,0.97
2018-07-12T13:09:23.776Z,2.35
2018-07-12T13:11:52.789Z,1.42
2018-07-12T13:14:21.496Z,1.10
2018-07-12T13:16:51.102Z,1.75
2018-07-12T13:19:19.775Z,1.30
2018-07-12T13:21:48.443Z,1.95
2018-07-12T13:24:17.069Z,1.98
2018-07-12T13:26:45.736Z,2.10
2018-07-12T13:29:14.315Z,1.70
2018-07-12T13:31:44.619Z,2.15
2018-07-12T13:34:13.405Z,1.12
2018-07-12T13:36:42.080Z,1.37
2018-07-12T13:39:10.953Z,1.17
2018-07-12T13:41:39.587Z,1.02
2018-07-12T13:44:16.921Z,1.35
2018-07-12T13:46:46.204Z,2.15
2018-07-12T13:49:16.933Z,1.80
2018-07-12T13:51:47.133Z,2.65
2018-07-12T13:54:16.085Z,1.85
2018-07-12T13:56:44.721Z,1.90
2018-07-12T13:59:13.666Z,2.40
2018-07-12T14:01:42.309Z,2.62
2018-07-12T14:04:13.171Z,1.73
2018-07-12T14:06:42.784Z,3.08
2018-07-12T14:09:12.764Z,4.85
2018-07-12T14:11:42.479Z,1.90
2018-07-12T14:14:12.180Z,2.40
2018-07-12T14:16:40.799Z,1.60
2018-07-12T14:19:12.538Z,4.70
2018-07-12T14:21:42.171Z,2.07
2018-07-12T14:24:10.827Z,4.25
2018-07-12T14:26:41.383Z,1.80
2018-07-12T14:29:09.990Z,1.70
2018-07-12T14:31:42.462Z,2.47
2018-07-12T14:34:11.232Z,3.50
2018-07-12T14:36:40.831Z,2.27
2018-07-12T14:39:10.236Z,3.15
2018-07-12T14:41:38.909Z,2.37
2018-07-12T14:44:07.505Z,2.85
2018-07-12T14:46:36.138Z,3.60
2018-07-12T14:49:06.002Z,3.10
2018-07-12T14:51:34.615Z,1.62
2018-07-12T14:54:05.314Z,2.40
2018-07-12T14:56:34.913Z,2.10
2018-07-12T14:59:03.617Z,2.08
2018-07-12T15:01:32.339Z,4.60
2018-07-12T15:04:00.993Z,3.13
2018-07-12T15:06:29.591Z,2.47
2018-07-12T15:08:58.274Z,2.60
2018-07-12T15:11:26.868Z,2.47
2018-07-12T15:13:55.478Z,2.10
2018-07-12T15:16:24.059Z,3.85
2018-07-12T15:18:53.662Z,2.37
2018-07-12T15:21:23.305Z,2.00
2018-07-12T15:23:51.949Z,2.17
2018-07-12T15:26:21.675Z,3.70
2018-07-12T15:28:50.274Z,1.75
2018-07-12T15:31:18.874Z,1.80
2018-07-12T15:33:47.473Z,3.70
2018-07-12T15:36:16.167Z,2.10
2018-07-12T15:38:44.764Z,2.52
2018-07-12T15:41:13.514Z,2.77
2018-07-12T15:43:42.133Z,2.37
2018-07-12T15:46:11.770Z,3.12
2018-07-12T15:48:40.398Z,1.50
2018-07-12T15:51:09.030Z,2.58
2018-07-12T15:53:37.691Z,4.10
2018-07-12T15:56:06.702Z,2.80
2018-07-12T15:58:36.176Z,2.40
2018-07-12T16:01:05.804Z,1.90
2018-07-12T16:03:35.425Z,2.57
2018-07-12T16:06:04.043Z,2.80
2018-07-12T16:08:34.708Z,3.62
2018-07-12T16:11:05.371Z,1.55
2018-07-12T16:13:34.088Z,3.75
2018-07-12T16:16:03.772Z,1.65
2018-07-12T16:18:32.436Z,1.50
2018-07-12T16:21:03.050Z,2.05
2018-07-12T16:23:32.685Z,1.50
2018-07-12T16:26:01.322Z,1.93
2018-07-12T16:28:29.967Z,1.60
2018-07-12T16:30:58.622Z,2.37
2018-07-12T16:33:28.249Z,1.95
2018-07-12T16:35:57.882Z,3.37
2018-07-12T16:38:27.484Z,1.82
2018-07-12T16:40:56.131Z,1.67
2018-07-12T16:43:24.786Z,2.50
2018-07-12T16:45:54.463Z,2.85
2018-07-12T16:48:23.291Z,2.30
2018-07-12T16:50:51.885Z,1.60
2018-07-12T16:53:20.568Z,2.30
2018-07-12T16:55:50.258Z,2.45
2018-07-12T16:58:18.856Z,4.37
2018-07-12T17:00:47.535Z,1.50
2018-07-12T17:03:16.136Z,2.02
2018-07-12T17:05:45.749Z,2.92
2018-07-12T17:08:14.412Z,2.60
2018-07-12T17:10:42.710Z,2.53
2018-07-12T17:13:13.357Z,2.47
2018-07-12T17:15:42.010Z,3.55
2018-07-12T17:18:10.774Z,2.77
2018-07-12T17:20:39.432Z,2.40
2018-07-12T17:23:08.060Z,1.63
2018-07-12T17:25:36.797Z,3.00
2018-07-12T17:28:05.421Z,3.10
2018-07-12T17:30:34.096Z,2.00
2018-07-12T17:33:02.929Z,4.42
2018-07-12T17:35:32.543Z,3.13
2018-07-12T17:38:03.192Z,2.95
2018-07-12T17:40:32.854Z,1.70
2018-07-12T17:43:01.476Z,5.53
2018-07-12T17:45:30.125Z,2.50
2018-07-12T17:47:58.849Z,1.60
2018-07-12T17:50:28.483Z,4.05
2018-07-12T17:52:57.141Z,4.47
2018-07-12T17:55:25.806Z,3.10
2018-07-12T17:57:55.462Z,2.72
2018-07-12T18:00:24.161Z,1.82
2018-07-12T18:02:52.835Z,2.77
2018-07-12T18:05:21.575Z,4.92
2018-07-12T18:07:50.179Z,2.67
2018-07-12T18:10:18.873Z,3.90
2018-07-12T18:12:49.805Z,4.03
2018-07-12T18:15:18.476Z,1.70
2018-07-12T18:17:47.218Z,2.70
2018-07-12T18:20:15.904Z,3.70
2018-07-12T18:22:44.730Z,2.80
2018-07-12T18:25:15.503Z,4.33
2018-07-12T18:27:45.183Z,3.87
2018-07-12T18:30:13.983Z,2.37
2018-07-12T18:32:43.020Z,2.37
2018-07-12T18:35:11.778Z,2.12
2018-07-12T18:37:40.607Z,2.23
2018-07-12T18:40:09.730Z,2.35
2018-07-12T18:42:39.831Z,3.45
2018-07-12T18:45:09.955Z,2.87
2018-07-12T18:47:38.665Z,4.37
2018-07-12T18:50:08.389Z,5.20
2018-07-12T18:52:38.106Z,7.10
2018-07-12T18:55:06.850Z,5.47
2018-07-12T18:57:35.952Z,2.70
2018-07-12T19:00:05.640Z,4.08
2018-07-12T19:02:34.765Z,4.37
2018-07-12T19:05:03.670Z,3.35
2018-07-12T19:07:34.447Z,3.37
2018-07-12T19:10:04.230Z,4.40
2018-07-12T19:12:33.147Z,3.92
2018-07-12T19:15:01.939Z,4.37
2018-07-12T19:17:30.611Z,4.25
2018-07-12T19:20:03.614Z,3.90
2018-07-12T19:22:32.340Z,3.90
2018-07-12T19:25:01.436Z,7.25
2018-07-12T19:27:29.879Z,5.50
2018-07-12T19:29:59.603Z,4.08
2018-07-12T19:32:29.349Z,4.67
2018-07-12T19:34:58.140Z,3.15
2018-07-12T19:37:28.216Z,4.37
2018-07-12T19:39:56.992Z,3.95
2018-07-12T19:42:25.951Z,4.97
2018-07-12T19:44:54.612Z,6.17
2018-07-12T19:47:23.289Z,5.87
2018-07-12T19:49:51.965Z,4.50
2018-07-12T19:52:20.691Z,6.08
2018-07-12T19:54:49.391Z,4.00
2018-07-12T19:57:18.177Z,4.15
2018-07-12T19:59:46.949Z,2.80
2018-07-12T20:02:15.729Z,3.87
2018-07-12T20:04:44.510Z,3.02
2018-07-12T20:07:16.954Z,4.70
2018-07-12T20:09:45.601Z,5.40
2018-07-12T20:12:15.377Z,4.00
2018-07-12T20:14:44.019Z,6.55
2018-07-12T20:17:19.015Z,3.90
2018-07-12T20:19:47.728Z,4.87
2018-07-12T20:22:16.413Z,3.47
2018-07-12T20:24:45.235Z,3.95
2018-07-12T20:27:13.884Z,5.03
2018-07-12T20:29:45.685Z,4.25
2018-07-12T20:32:15.481Z,4.12
2018-07-12T20:34:45.275Z,6.65
2018-07-12T20:37:14.086Z,5.93
2018-07-12T20:39:42.755Z,5.00
2018-07-12T20:42:11.418Z,4.75
2018-07-12T20:44:42.135Z,5.00
2018-07-12T20:47:10.787Z,5.90
2018-07-12T20:49:39.442Z,4.83
2018-07-12T20:52:08.264Z,6.95
2018-07-12T20:54:37.099Z,6.70
2018-07-12T20:57:06.351Z,6.78
2018-07-12T20:59:36.884Z,5.80
2018-07-12T21:02:05.617Z,6.40
2018-07-12T21:04:34.362Z,7.62
2018-07-12T21:07:03.215Z,6.25
2018-07-12T21:09:31.980Z,4.85
2018-07-12T21:12:00.657Z,6.05
2018-07-12T21:14:29.293Z,5.30
2018-07-12T21:16:57.972Z,6.53
2018-07-12T21:19:27.622Z,7.67
2018-07-12T21:21:57.330Z,6.05
2018-07-12T21:24:26.169Z,4.83
2018-07-12T21:26:54.891Z,4.95
2018-07-12T21:29:23.545Z,5.30
2018-07-12T21:31:52.273Z,5.63
2018-07-12T21:34:21.799Z,5.17
2018-07-12T21:36:50.546Z,6.97
2018-07-12T21:39:20.227Z,5.05
2018-07-12T21:41:48.948Z,6.28
2018-07-12T21:44:17.638Z,7.28
2018-07-12T21:46:46.630Z,9.53
2018-07-12T21:49:15.330Z,5.35
2018-07-12T21:51:44.013Z,8.25
2018-07-12T21:54:12.867Z,7.17
2018-07-12T21:56:41.565Z,5.80
2018-07-12T21:59:11.252Z,7.00
2018-07-12T22:01:40.951Z,8.55
2018-07-12T22:04:10.664Z,8.20
2018-07-12T22:06:51.568Z,6.65
2018-07-12T22:09:20.262Z,5.78
2018-07-12T22:11:54.202Z,8.83
2018-07-12T22:14:22.845Z,7.10
2018-07-12T22:16:51.531Z,6.97
2018-07-12T22:19:20.249Z,6.05
2018-07-12T22:21:48.960Z,6.23
2018-07-12T22:24:17.673Z,6.62
2018-07-12T22:26:47.436Z,7.35
2018-07-12T22:29:16.084Z,6.03
2018-07-12T22:31:44.812Z,5.53
2018-07-12T22:34:13.538Z,6.92
2018-07-12T22:36:42.185Z,5.55
2018-07-12T22:39:11.407Z,9.25
2018-07-12T22:41:40.205Z,7.13
2018-07-12T22:44:08.900Z,5.80
2018-07-12T22:46:37.622Z,6.90
2018-07-12T22:49:07.426Z,7.65
2018-07-12T22:51:36.117Z,7.05
2018-07-12T22:54:08.000Z,6.65
2018-07-12T22:56:36.718Z,7.10
2018-07-12T22:59:06.394Z,6.70
2018-07-12T23:01:35.106Z,8.33
2018-07-12T23:04:03.837Z,8.40
2018-07-12T23:06:32.571Z,9.10
2018-07-12T23:09:01.308Z,7.33
2018-07-12T23:11:32.004Z,7.60
2018-07-12T23:14:00.688Z,8.13
2018-07-12T23:16:30.398Z,9.20
2018-07-12T23:18:59.120Z,7.25
2018-07-12T23:21:28.409Z,7.83
2018-07-12T23:23:59.137Z,7.95
2018-07-12T23:26:28.828Z,7.25
2018-07-12T23:28:57.521Z,7.30
2018-07-12T23:31:26.390Z,7.50
2018-07-12T23:33:56.060Z,7.15
2018-07-12T23:36:26.782Z,6.70
2018-07-12T23:38:55.926Z,7.25
2018-07-12T23:41:24.834Z,8.23
2018-07-12T23:43:53.479Z,6.70
2018-07-12T23:46:22.239Z,6.97
2018-07-12T23:48:50.895Z,8.75
2018-07-12T23:51:19.584Z,8.43
2018-07-12T23:53:48.301Z,7.72
2018-07-12T23:56:16.962Z,8.35
2018-07-12T23:58:45.620Z,7.05
